Time;durP1;ratioP1;P1;durP2;ratioP2;P2;SDS_P1;SDS_P2;PMS_P1;PMS_P2;Temp;Humidity;BMP_temperature;BMP_pressure;BME280_temperature;BME280_humidity;BME280_pressure;Samples;Min_cycle;Max_cycle;Signal;HPM_P1;HPM_P2
2021/01/03 00:01:45;;;;;;;5.85;2.80;;;20.70;51.50;;;;;;5114365;28;20039;-41
2021/01/03 00:04:11;;;;;;;4.85;2.40;;;20.70;51.50;;;;;;5113463;28;20115;-36
2021/01/03 00:06:37;;;;;;;5.57;2.22;;;20.70;51.40;;;;;;5113817;28;20127;-38
2021/01/03 00:09:04;;;;;;;6.07;3.38;;;20.70;51.20;;;;;;5113190;28;20076;-39
2021/01/03 00:11:29;;;;;;;4.28;2.10;;;20.70;51.20;;;;;;5114116;28;20095;-41
2021/01/03 00:13:55;;;;;;;2.83;2.20;;;20.70;51.10;;;;;;5112679;28;20131;-43
2021/01/03 00:16:21;;;;;;;4.28;2.10;;;20.70;51.10;;;;;;5113025;28;20469;-38
2021/01/03 00:18:46;;;;;;;5.70;2.30;;;20.60;51.00;;;;;;5112666;28;20027;-42
2021/01/03 00:21:12;;;;;;;2.78;2.40;;;20.60;50.90;;;;;;5113047;28;20066;-47
2021/01/03 00:23:38;;;;;;;3.10;1.92;;;20.70;51.50;;;;;;5113464;28;20067;-42
2021/01/03 00:26:03;;;;;;;8.60;3.17;;;20.60;50.70;;;;;;5113279;28;20024;-51
2021/01/03 00:28:29;;;;;;;5.93;2.10;;;20.60;51.30;;;;;;5113613;28;20432;-38
2021/01/03 00:30:55;;;;;;;4.45;2.08;;;20.60;50.60;;;;;;5112307;28;20376;-35
2021/01/03 00:33:20;;;;;;;3.58;1.98;;;20.60;50.60;;;;;;5112834;27;20031;-41
2021/01/03 00:35:46;;;;;;;3.50;2.10;;;20.60;50.50;;;;;;5112260;28;20063;-40
2021/01/03 00:38:13;;;;;;;6.00;2.50;;;20.60;50.50;;;;;;5112456;28;20035;-41
2021/01/03 00:40:39;;;;;;;4.45;2.85;;;20.60;50.40;;;;;;5113564;28;20055;-49
2021/01/03 00:43:06;;;;;;;4.63;2.17;;;20.60;50.40;;;;;;5112271;28;20055;-53
2021/01/03 00:45:32;;;;;;;3.95;2.45;;;20.60;50.30;;;;;;5113051;28;20035;-40
2021/01/03 00:47:58;;;;;;;4.53;2.28;;;20.60;50.30;;;;;;5113026;28;20026;-60
2021/01/03 00:50:24;;;;;;;4.18;2.17;;;20.60;50.20;;;;;;5111337;28;20032;-41
2021/01/03 00:52:50;;;;;;;3.22;2.17;;;20.60;50.20;;;;;;5112109;28;20026;-42
2021/01/03 00:55:16;;;;;;;3.35;2.13;;;20.60;50.10;;;;;;5112105;28;20384;-43
2021/01/03 00:57:42;;;;;;;3.33;1.98;;;20.60;50.00;;;;;;5111899;28;20044;-43
2021/01/03 01:00:13;;;;;;;5.05;2.20;;;20.60;50.00;;;;;;5111994;28;20028;-42
2021/01/03 01:02:39;;;;;;;2.63;1.80;;;20.60;49.90;;;;;;5112376;28;20023;-35
2021/01/03 01:05:05;;;;;;;4.22;1.70;;;20.60;49.80;;;;;;5112643;28;20437;-46
2021/01/03 01:07:31;;;;;;;2.88;1.70;;;20.60;49.70;;;;;;5112351;28;20043;-36
2021/01/03 01:09:57;;;;;;;2.90;1.92;;;20.60;49.70;;;;;;5111784;28;20023;-42
2021/01/03 01:12:23;;;;;;;3.40;2.33;;;20.60;49.70;;;;;;5110790;28;20346;-41
2021/01/03 01:14:48;;;;;;;2.92;1.95;;;20.60;49.70;;;;;;5111236;28;20080;-41
2021/01/03 01:17:14;;;;;;;2.83;1.80;;;20.60;49.50;;;;;;5110952;28;20020;-43
2021/01/03 01:19:40;;;;;;;3.08;1.80;;;20.60;49.50;;;;;;5112982;28;20030;-35
2021/01/03 01:22:05;;;;;;;5.25;2.53;;;20.60;49.50;;;;;;5111651;28;20024;-52
2021/01/03 01:24:31;;;;;;;2.53;1.80;;;20.60;49.40;;;;;;5112691;28;20110;-54
2021/01/03 01:26:57;;;;;;;5.15;1.90;;;20.60;49.30;;;;;;5112850;28;20032;-43
2021/01/03 01:29:23;;;;;;;3.30;1.83;;;20.60;49.30;;;;;;5111264;28;20059;-43
2021/01/03 01:31:48;;;;;;;3.08;1.75;;;20.60;49.20;;;;;;5111846;28;20096;-37
2021/01/03 01:34:14;;;;;;;3.05;1.75;;;20.60;49.10;;;;;;5110845;28;20027;-52
2021/01/03 01:36:40;;;;;;;2.72;2.08;;;20.60;49.10;;;;;;5111197;28;20475;-49
2021/01/03 01:39:06;;;;;;;2.75;1.80;;;20.60;49.10;;;;;;5110574;28;20058;-34
2021/01/03 01:41:31;;;;;;;4.68;1.73;;;20.60;49.00;;;;;;5110788;28;20051;-50
2021/01/03 01:43:57;;;;;;;3.15;1.90;;;20.60;48.90;;;;;;5111118;28;20032;-53
2021/01/03 01:46:50;;;;;;;2.33;1.58;;;20.60;48.90;;;;;;5109613;28;20042;-37
2021/01/03 01:49:16;;;;;;;13.50;2.72;;;20.60;48.80;;;;;;5101904;28;20088;-49
2021/01/03 01:51:46;;;;;;;5.72;1.65;;;20.60;48.70;;;;;;5110280;28;20111;-51
2021/01/03 01:54:21;;;;;;;3.63;1.83;;;20.60;48.70;;;;;;5109996;28;20032;-45
2021/01/03 01:56:59;;;;;;;5.40;2.30;;;20.60;48.70;;;;;;5111186;28;20023;-44
2021/01/03 01:59:48;;;;;;;3.80;1.85;;;20.60;48.60;;;;;;5110650;28;20051;-46
2021/01/03 02:02:33;;;;;;;2.22;1.77;;;20.60;48.50;;;;;;5097977;28;20039;-47
2021/01/03 02:05:10;;;;;;;6.70;2.28;;;20.60;48.40;;;;;;5109958;28;20047;-61
2021/01/03 02:07:57;;;;;;;3.65;2.15;;;20.60;48.30;;;;;;5109459;28;20040;-43
2021/01/03 02:10:31;;;;;;;3.55;1.98;;;20.60;48.30;;;;;;5109616;28;20833;-43
2021/01/03 02:13:05;;;;;;;3.95;2.03;;;20.60;48.20;;;;;;5115875;28;20036;-41
2021/01/03 02:15:32;;;;;;;3.50;1.88;;;20.60;48.10;;;;;;5116014;28;20046;-41
2021/01/03 02:18:01;;;;;;;3.17;1.85;;;20.60;48.10;;;;;;5115348;28;20051;-44
2021/01/03 02:20:33;;;;;;;4.80;1.88;;;20.60;48.10;;;;;;5114989;28;20023;-35
2021/01/03 02:23:05;;;;;;;4.07;1.65;;;20.60;48.00;;;;;;5113810;28;20039;-40
2021/01/03 02:25:31;;;;;;;2.35;1.60;;;20.60;48.00;;;;;;5114892;28;20030;-59
2021/01/03 02:28:08;;;;;;;3.33;1.65;;;20.60;47.90;;;;;;5115057;28;20036;-36
2021/01/03 02:30:34;;;;;;;3.42;2.03;;;20.60;47.80;;;;;;5116001;28;20035;-41
2021/01/03 02:33:30;;;;;;;4.20;1.75;;;20.60;47.80;;;;;;5115893;28;20110;-63
2021/01/03 02:36:01;;;;;;;4.07;2.30;;;20.60;47.70;;;;;;5114923;28;20077;-52
2021/01/03 02:38:29;;;;;;;3.25;1.73;;;20.60;47.80;;;;;;5115372;28;20024;-41
2021/01/03 02:40:55;;;;;;;2.47;1.83;;;20.60;47.70;;;;;;5116302;27;20092;-51
2021/01/03 02:43:21;;;;;;;2.72;1.52;;;20.60;47.60;;;;;;5114978;28;20484;-41
2021/01/03 02:45:47;;;;;;;2.92;1.77;;;20.60;47.60;;;;;;5115821;28;20031;-35
2021/01/03 02:48:19;;;;;;;5.10;1.90;;;20.70;47.60;;;;;;5113702;28;20488;-41
2021/01/03 02:50:46;;;;;;;4.80;1.42;;;20.60;47.50;;;;;;5115748;28;20069;-45
2021/01/03 02:53:11;;;;;;;3.33;1.85;;;20.70;47.50;;;;;;5113951;28;20096;-40
2021/01/03 02:55:37;;;;;;;2.85;1.65;;;20.60;47.40;;;;;;5115813;28;20460;-50
2021/01/03 02:58:03;;;;;;;4.03;2.25;;;20.70;47.40;;;;;;5113775;28;20035;-63
2021/01/03 03:00:32;;;;;;;3.95;2.03;;;20.60;47.40;;;;;;5115756;28;20024;-36
2021/01/03 03:02:58;;;;;;;1.83;1.50;;;20.60;47.30;;;;;;5115102;28;20023;-42
2021/01/03 03:05:24;;;;;;;3.17;2.00;;;20.60;47.30;;;;;;5114488;28;20098;-34
2021/01/03 03:07:51;;;;;;;4.35;1.75;;;20.70;47.30;;;;;;5115311;28;20051;-51
2021/01/03 03:10:17;;;;;;;2.55;1.45;;;20.70;47.30;;;;;;5114656;28;20047;-35
2021/01/03 03:12:48;;;;;;;2.22;1.75;;;20.60;47.10;;;;;;5115025;28;20039;-39
2021/01/03 03:15:14;;;;;;;3.72;1.83;;;20.70;47.20;;;;;;5114456;28;20024;-38
2021/01/03 03:17:40;;;;;;;4.38;1.80;;;20.70;47.10;;;;;;5115136;28;20085;-48
2021/01/03 03:20:06;;;;;;;3.25;1.70;;;20.70;47.10;;;;;;5114535;28;20023;-62
2021/01/03 03:22:32;;;;;;;2.95;1.83;;;20.70;47.00;;;;;;5114054;28;20361;-38
2021/01/03 03:24:57;;;;;;;3.05;1.50;;;20.70;47.00;;;;;;5115062;28;20032;-60
2021/01/03 03:27:23;;;;;;;2.63;1.65;;;20.70;47.00;;;;;;5114143;28;20123;-44
2021/01/03 03:29:49;;;;;;;2.58;1.60;;;20.70;46.90;;;;;;5115035;28;20032;-36
2021/01/03 03:32:15;;;;;;;2.35;1.50;;;20.70;46.90;;;;;;5111941;28;20036;-43
2021/01/03 03:34:40;;;;;;;3.53;1.65;;;20.70;46.90;;;;;;5114380;28;20066;-38
2021/01/03 03:37:06;;;;;;;2.72;1.50;;;20.70;46.80;;;;;;5112897;28;20027;-61
2021/01/03 03:39:32;;;;;;;1.88;1.58;;;20.70;46.80;;;;;;5114395;28;20038;-38
2021/01/03 03:41:59;;;;;;;2.80;1.80;;;20.70;46.80;;;;;;5114414;28;20483;-38
2021/01/03 03:44:26;;;;;;;2.90;1.67;;;20.70;46.70;;;;;;5113778;28;20055;-42
2021/01/03 03:46:55;;;;;;;2.50;1.70;;;20.70;46.70;;;;;;5113145;28;20030;-42
2021/01/03 03:49:21;;;;;;;2.83;1.77;;;20.70;46.60;;;;;;5113183;28;20027;-44
2021/01/03 03:51:51;;;;;;;2.65;1.80;;;20.70;46.60;;;;;;5113056;28;20024;-41
2021/01/03 03:54:17;;;;;;;2.50;1.58;;;20.70;46.60;;;;;;5111923;28;20031;-42
2021/01/03 03:56:48;;;;;;;1.83;1.52;;;20.70;46.50;;;;;;5114389;28;20020;-56
2021/01/03 03:59:14;;;;;;;4.15;1.80;;;20.70;46.50;;;;;;5113370;28;20031;-38
2021/01/03 04:01:39;;;;;;;2.30;1.85;;;20.70;46.50;;;;;;5113883;28;20036;-42
2021/01/03 04:04:05;;;;;;;2.53;1.80;;;20.70;46.50;;;;;;5113448;28;20038;-61
2021/01/03 04:06:31;;;;;;;1.83;1.50;;;20.70;46.50;;;;;;5112168;28;20024;-41
2021/01/03 04:08:57;;;;;;;2.75;1.67;;;20.70;46.40;;;;;;5112975;28;20404;-43
2021/01/03 04:11:22;;;;;;;2.65;1.55;;;20.70;46.40;;;;;;5113195;28;20027;-41
2021/01/03 04:13:48;;;;;;;2.08;1.50;;;20.70;46.30;;;;;;5112632;28;20027;-43
2021/01/03 04:16:14;;;;;;;2.47;1.80;;;20.70;46.30;;;;;;5111824;28;20016;-41
2021/01/03 04:18:39;;;;;;;1.50;1.40;;;20.70;46.20;;;;;;5112130;27;20023;-50
2021/01/03 04:21:06;;;;;;;1.67;1.40;;;20.70;46.20;;;;;;5113704;28;20076;-63
2021/01/03 04:23:31;;;;;;;3.45;1.55;;;20.70;46.20;;;;;;5113432;28;20042;-49
2021/01/03 04:25:57;;;;;;;1.60;1.33;;;20.70;46.20;;;;;;5113651;28;20098;-36
2021/01/03 04:28:23;;;;;;;2.55;1.95;;;20.70;46.20;;;;;;5113172;28;20066;-34
2021/01/03 04:30:48;;;;;;;2.35;1.42;;;20.70;46.10;;;;;;5113578;28;20055;-42
2021/01/03 04:33:14;;;;;;;2.42;1.48;;;20.70;46.10;;;;;;5110623;28;20036;-41
2021/01/03 04:35:40;;;;;;;3.03;1.80;;;20.70;46.10;;;;;;5112334;28;20480;-44
2021/01/03 04:38:05;;;;;;;3.65;1.88;;;20.70;46.00;;;;;;5111942;28;20023;-63
2021/01/03 04:40:32;;;;;;;4.22;2.00;;;20.70;46.00;;;;;;5111745;28;20035;-41
2021/01/03 04:43:01;;;;;;;2.53;1.73;;;20.70;46.00;;;;;;5112338;28;20046;-42
2021/01/03 04:45:40;;;;;;;1.85;1.48;;;20.70;45.90;;;;;;5111194;28;20023;-43
2021/01/03 04:48:23;;;;;;;2.42;1.65;;;20.80;45.90;;;;;;5118709;27;20396;-62
2021/01/03 04:51:07;;;;;;;2.83;1.75;;;20.70;45.90;;;;;;5134078;27;20517;-41
2021/01/03 04:53:38;;;;;;;2.42;1.50;;;20.70;45.90;;;;;;5133388;27;20031;-50
2021/01/03 04:56:18;;;;;;;1.75;1.52;;;20.70;45.90;;;;;;5133343;27;20023;-36
2021/01/03 04:59:00;;;;;;;3.50;1.70;;;20.70;45.80;;;;;;5132460;27;20438;-39
2021/01/03 05:01:53;;;;;;;2.03;1.58;;;20.70;45.80;;;;;;5131823;27;20035;-40
2021/01/03 05:04:40;;;;;;;2.20;1.52;;;20.80;45.80;;;;;;5123951;27;20112;-62
2021/01/03 05:07:17;;;;;;;3.05;2.03;;;20.70;45.80;;;;;;5119418;27;20040;-63
2021/01/03 05:09:44;;;;;;;3.63;1.70;;;20.70;45.70;;;;;;5112697;28;20015;-41
2021/01/03 05:12:18;;;;;;;2.42;1.63;;;20.70;45.60;;;;;;5111641;28;20028;-60
2021/01/03 05:14:53;;;;;;;2.00;1.60;;;20.70;45.60;;;;;;5111648;28;20035;-40
2021/01/03 05:17:20;;;;;;;2.40;1.45;;;20.70;46.20;;;;;;5110876;28;20594;-41
2021/01/03 05:19:46;;;;;;;2.47;1.63;;;20.80;45.60;;;;;;5112832;28;20015;-40
2021/01/03 05:22:31;;;;;;;3.33;1.50;;;20.70;45.60;;;;;;5112056;28;20034;-41
2021/01/03 05:25:02;;;;;;;2.75;1.35;;;20.70;45.50;;;;;;5112807;28;20032;-45
2021/01/03 05:27:29;;;;;;;1.92;1.73;;;20.70;45.50;;;;;;5110679;28;20020;-41
2021/01/03 05:30:19;;;;;;;3.30;1.50;;;20.70;45.50;;;;;;5111610;28;20384;-40
2021/01/03 05:32:45;;;;;;;2.28;1.33;;;20.70;45.50;;;;;;5112769;28;20042;-41
2021/01/03 05:35:22;;;;;;;2.03;1.50;;;20.80;45.50;;;;;;5111660;28;20066;-45
2021/01/03 05:37:51;;;;;;;2.85;1.77;;;20.70;45.30;;;;;;5113030;28;20062;-39
2021/01/03 05:40:27;;;;;;;2.95;1.50;;;20.80;45.40;;;;;;5111807;28;20068;-41
2021/01/03 05:43:25;;;;;;;2.40;1.50;;;20.80;45.40;;;;;;5112886;28;20049;-41
2021/01/03 05:46:19;;;;;;;2.28;1.73;;;20.70;45.30;;;;;;5112059;28;20380;-39
2021/01/03 05:48:56;;;;;;;1.63;1.38;;;20.80;45.30;;;;;;5112592;28;20028;-43
2021/01/03 05:51:34;;;;;;;3.92;2.08;;;20.80;45.30;;;;;;5111578;28;20036;-41
2021/01/03 05:54:07;;;;;;;1.60;1.30;;;20.70;45.20;;;;;;5111327;28;20028;-41
2021/01/03 05:56:35;;;;;;;2.58;1.55;;;20.80;45.30;;;;;;5110575;28;20024;-40
2021/01/03 05:59:02;;;;;;;2.47;1.67;;;20.70;45.20;;;;;;5112081;28;20019;-42
2021/01/03 06:01:31;;;;;;;2.03;1.45;;;20.80;45.20;;;;;;5111471;28;20084;-42
2021/01/03 06:04:13;;;;;;;2.80;1.55;;;20.80;45.20;;;;;;5112158;28;20080;-36
2021/01/03 06:06:51;;;;;;;2.58;1.60;;;20.80;45.20;;;;;;5110654;28;20127;-40
2021/01/03 06:09:32;;;;;;;2.17;1.60;;;20.80;45.10;;;;;;5110276;28;20019;-41
2021/01/03 06:12:14;;;;;;;1.85;1.38;;;20.80;45.10;;;;;;5112403;28;20024;-53
2021/01/03 06:14:40;;;;;;;1.88;1.45;;;20.70;45.10;;;;;;5111008;28;20392;-40
2021/01/03 06:17:23;;;;;;;2.53;1.75;;;20.80;45.10;;;;;;5112242;28;20106;-41
2021/01/03 06:19:54;;;;;;;1.70;1.40;;;20.80;45.10;;;;;;5112310;28;20088;-40
2021/01/03 06:23:00;;;;;;;1.17;1.07;;;20.80;45.00;;;;;;5111267;28;20088;-40
2021/01/03 06:25:44;;;;;;;1.85;1.33;;;20.80;45.00;;;;;;5048530;28;20279;-52
2021/01/03 06:28:21;;;;;;;2.42;1.63;;;20.80;45.00;;;;;;5048864;28;20044;-62
2021/01/03 06:31:03;;;;;;;2.10;1.58;;;20.80;45.00;;;;;;5049308;28;20119;-40
2021/01/03 06:33:38;;;;;;;2.45;1.45;;;20.80;44.90;;;;;;5048682;28;20033;-39
2021/01/03 06:36:15;;;;;;;2.42;1.65;;;20.80;45.00;;;;;;5048881;28;20048;-39
2021/01/03 06:39:15;;;;;;;2.40;1.48;;;20.80;44.90;;;;;;5049154;28;20500;-37
2021/01/03 06:41:53;;;;;;;2.45;1.52;;;20.70;44.90;;;;;;5048919;28;20029;-40
2021/01/03 06:44:46;;;;;;;1.88;1.52;;;20.80;44.80;;;;;;5048129;28;20116;-40
2021/01/03 06:47:45;;;;;;;2.00;1.20;;;20.80;44.80;;;;;;5048292;28;20029;-66
2021/01/03 06:50:36;;;;;;;2.42;1.40;;;20.80;44.80;;;;;;5048973;28;20064;-64
2021/01/03 06:53:30;;;;;;;2.08;1.48;;;20.80;44.80;;;;;;5048778;28;20040;-57
2021/01/03 06:56:17;;;;;;;2.22;1.50;;;20.80;44.80;;;;;;5059099;28;20110;-33
2021/01/03 06:58:54;;;;;;;2.20;1.40;;;20.80;44.70;;;;;;5115799;28;20031;-43
2021/01/03 07:01:26;;;;;;;2.40;1.60;;;20.80;44.70;;;;;;5114784;28;20373;-40
2021/01/03 07:03:54;;;;;;;3.10;1.88;;;20.80;44.70;;;;;;5115864;28;20424;-38
2021/01/03 07:06:21;;;;;;;1.48;1.33;;;20.80;44.70;;;;;;5112839;28;20114;-46
2021/01/03 07:08:51;;;;;;;1.80;1.20;;;20.80;44.70;;;;;;5114371;28;20111;-41
2021/01/03 07:11:38;;;;;;;1.67;1.48;;;20.80;44.70;;;;;;5114575;28;20023;-41
2021/01/03 07:14:22;;;;;;;2.05;1.27;;;20.80;44.70;;;;;;5115390;28;20081;-41
2021/01/03 07:16:54;;;;;;;1.45;1.23;;;20.80;44.60;;;;;;5115141;28;20495;-43
2021/01/03 07:19:35;;;;;;;2.00;1.52;;;20.80;44.60;;;;;;5114316;28;20556;-40
2021/01/03 07:22:13;;;;;;;2.85;1.73;;;20.80;44.60;;;;;;5114711;28;20261;-42
2021/01/03 07:24:51;;;;;;;3.30;2.08;;;20.80;44.60;;;;;;5114992;28;20043;-39
2021/01/03 07:27:38;;;;;;;1.63;1.35;;;20.80;44.60;;;;;;5113828;28;20030;-42
2021/01/03 07:30:04;;;;;;;2.22;1.50;;;20.80;44.50;;;;;;5113680;28;20150;-40
2021/01/03 07:32:32;;;;;;;1.73;1.35;;;20.80;44.50;;;;;;5114146;28;20480;-40
2021/01/03 07:35:00;;;;;;;1.45;1.27;;;20.80;44.50;;;;;;5114954;28;20027;-40
2021/01/03 07:37:29;;;;;;;2.33;1.33;;;20.80;44.50;;;;;;5113890;28;20024;-37
2021/01/03 07:40:11;;;;;;;4.95;3.05;;;20.80;44.50;;;;;;5114887;28;20110;-51
2021/01/03 07:43:01;;;;;;;6.15;4.75;;;20.70;40.10;;;;;;5112529;27;20059;-66
2021/01/03 07:45:33;;;;;;;4.63;3.55;;;19.70;35.70;;;;;;5135778;27;20051;-42
2021/01/03 07:47:59;;;;;;;3.85;2.80;;;19.70;39.00;;;;;;5136200;27;20058;-42
2021/01/03 07:50:32;;;;;;;4.18;2.47;;;19.90;41.20;;;;;;5125855;27;20511;-42
2021/01/03 07:53:23;;;;;;;3.50;2.42;;;20.10;41.20;;;;;;5113205;28;20035;-41
2021/01/03 07:55:49;;;;;;;2.55;2.17;;;20.30;41.50;;;;;;5109939;28;20486;-39
2021/01/03 07:58:18;;;;;;;4.05;2.30;;;20.40;41.60;;;;;;5113533;28;20095;-59
2021/01/03 08:00:50;;;;;;;4.03;2.20;;;20.50;41.60;;;;;;5114745;28;20476;-51
2021/01/03 08:03:20;;;;;;;2.63;2.13;;;20.60;41.90;;;;;;5113558;28;20043;-57
2021/01/03 08:05:46;;;;;;;5.07;2.00;;;20.60;42.20;;;;;;5114260;28;20054;-54
2021/01/03 08:08:21;;;;;;;3.75;1.90;;;20.70;42.20;;;;;;5113114;28;20047;-58
2021/01/03 08:10:48;;;;;;;2.45;1.75;;;20.80;42.50;;;;;;5113132;28;20440;-38
2021/01/03 08:13:26;;;;;;;4.60;2.20;;;20.80;42.40;;;;;;5120147;27;20019;-61
2021/01/03 08:15:57;;;;;;;3.45;2.00;;;20.80;42.60;;;;;;5121187;27;20123;-63
2021/01/03 08:18:24;;;;;;;4.30;2.37;;;20.80;42.80;;;;;;5117168;27;20391;-39
2021/01/03 08:20:50;;;;;;;2.00;1.80;;;20.90;42.70;;;;;;5134565;27;20019;-37
2021/01/03 08:23:19;;;;;;;3.00;1.80;;;21.00;42.60;;;;;;5133177;27;20491;-59
2021/01/03 08:25:45;;;;;;;5.53;2.08;;;21.10;42.70;;;;;;5134445;27;20019;-38
2021/01/03 08:28:31;;;;;;;2.47;1.60;;;21.10;42.70;;;;;;5132728;27;20028;-45
2021/01/03 08:31:00;;;;;;;3.45;1.98;;;21.10;42.70;;;;;;5133095;27;20031;-39
2021/01/03 08:33:36;;;;;;;2.85;2.13;;;21.10;42.80;;;;;;5133350;27;20088;-39
2021/01/03 08:36:31;;;;;;;5.03;4.00;;;21.00;42.00;;;;;;5134292;27;20045;-46
2021/01/03 08:39:09;;;;;;;5.93;3.60;;;20.70;39.40;;;;;;5114529;27;20085;-39
2021/01/03 08:41:47;;;;;;;7.13;2.90;;;20.70;39.60;;;;;;5112948;28;20538;-37
2021/01/03 08:44:12;;;;;;;3.10;2.53;;;20.70;40.40;;;;;;5127249;27;20042;-52
2021/01/03 08:46:39;;;;;;;5.22;2.78;;;20.80;40.40;;;;;;5133602;27;20360;-39
2021/01/03 08:49:09;;;;;;;4.80;3.50;;;20.90;40.20;;;;;;5133889;27;20041;-41
2021/01/03 08:51:36;;;;;;;3.67;3.22;;;20.80;38.40;;;;;;5115843;27;20514;-47
2021/01/03 08:54:05;;;;;;;5.07;2.60;;;20.70;38.60;;;;;;5111702;28;20032;-33
2021/01/03 08:56:51;;;;;;;4.43;2.45;;;20.70;39.90;;;;;;5111631;27;20027;-38
2021/01/03 08:59:18;;;;;;;3.13;2.38;;;20.80;40.10;;;;;;5110904;28;20015;-60
2021/01/03 09:01:45;;;;;;;3.88;2.40;;;20.90;40.10;;;;;;5111681;28;20380;-39
2021/01/03 09:04:19;;;;;;;3.00;2.50;;;20.90;40.10;;;;;;5112131;28;20032;-45
2021/01/03 09:06:52;;;;;;;3.50;2.30;;;20.90;40.30;;;;;;5110687;28;20186;-43
2021/01/03 09:09:23;;;;;;;3.65;2.38;;;20.90;40.30;;;;;;5122821;27;20047;-42
2021/01/03 09:12:01;;;;;;;5.72;2.38;;;21.00;40.50;;;;;;5132026;27;20035;-39
2021/01/03 09:14:34;;;;;;;3.42;2.30;;;21.00;40.50;;;;;;5114893;27;20028;-41
2021/01/03 09:17:21;;;;;;;2.80;2.05;;;21.00;40.60;;;;;;5112735;28;20030;-38
2021/01/03 09:20:05;;;;;;;3.70;2.97;;;21.00;40.50;;;;;;5126192;27;20115;-40
2021/01/03 09:22:35;;;;;;;5.53;3.08;;;20.80;38.70;;;;;;5111441;28;20468;-38
2021/01/03 09:25:05;;;;;;;2.95;2.33;;;20.70;39.60;;;;;;5112357;28;20160;-42
2021/01/03 09:27:33;;;;;;;6.95;2.55;;;20.80;40.00;;;;;;5111654;28;20161;-39
2021/01/03 09:30:12;;;;;;;6.88;2.80;;;20.90;40.30;;;;;;5112620;28;20414;-38
2021/01/03 09:32:41;;;;;;;3.78;1.95;;;21.00;40.50;;;;;;5110681;28;20486;-50
2021/01/03 09:35:44;;;;;;;3.45;1.95;;;21.00;40.60;;;;;;5105747;28;20036;-40
2021/01/03 09:38:28;;;;;;;2.55;1.83;;;21.10;40.70;;;;;;5081106;28;20063;-55
2021/01/03 09:41:08;;;;;;;2.83;1.80;;;21.10;40.60;;;;;;5112635;28;20488;-39
2021/01/03 09:44:12;;;;;;;4.97;2.00;;;21.20;40.70;;;;;;5120918;27;20608;-45
2021/01/03 09:47:06;;;;;;;5.22;1.88;;;21.20;40.80;;;;;;5132498;27;20049;-39
2021/01/03 09:49:37;;;;;;;2.97;1.85;;;21.40;40.90;;;;;;5130183;27;20043;-38
2021/01/03 09:52:44;;;;;;;3.17;2.03;;;21.40;41.10;;;;;;5134167;27;20023;-39
2021/01/03 09:55:26;;;;;;;2.15;1.52;;;21.40;41.20;;;;;;5139961;27;20084;-38
2021/01/03 09:57:54;;;;;;;4.55;2.20;;;21.50;41.70;;;;;;5108711;28;20050;-38
2021/01/03 10:00:22;;;;;;;3.63;1.63;;;21.50;41.70;;;;;;5095594;28;20050;-38
2021/01/03 10:02:49;;;;;;;5.13;1.60;;;21.50;41.90;;;;;;5128938;27;20026;-56
2021/01/03 10:05:29;;;;;;;5.03;1.67;;;21.60;42.30;;;;;;5091539;28;20485;-47
2021/01/03 10:08:08;;;;;;;4.93;2.00;;;21.60;42.50;;;;;;5109616;28;20094;-47
2021/01/03 10:10:47;;;;;;;9.13;2.17;;;21.60;42.60;;;;;;5110838;28;20036;-47
2021/01/03 10:13:14;;;;;;;3.10;1.77;;;21.40;42.90;;;;;;5118774;28;20383;-45
2021/01/03 10:15:40;;;;;;;5.60;2.05;;;21.40;43.10;;;;;;5131671;27;20050;-51
2021/01/03 10:18:09;;;;;;;4.53;2.05;;;21.40;43.20;;;;;;5131104;28;20456;-57
2021/01/03 10:20:50;;;;;;;3.35;2.33;;;21.40;43.30;;;;;;5115686;28;20465;-43
2021/01/03 10:23:40;;;;;;;6.80;2.22;;;21.40;43.40;;;;;;5111586;28;20027;-46
2021/01/03 10:26:25;;;;;;;6.90;2.05;;;21.40;43.40;;;;;;5118637;28;20031;-48
2021/01/03 10:28:51;;;;;;;2.83;1.80;;;21.40;43.50;;;;;;5133077;27;20349;-46
2021/01/03 10:31:18;;;;;;;3.78;2.30;;;21.40;43.60;;;;;;5133770;27;20404;-58
2021/01/03 10:33:44;;;;;;;6.88;1.90;;;21.40;43.60;;;;;;5135917;27;20035;-45
2021/01/03 10:36:19;;;;;;;3.15;1.70;;;21.40;43.70;;;;;;5136543;27;20027;-47
2021/01/03 10:38:45;;;;;;;7.45;2.17;;;21.40;43.70;;;;;;5136918;27;20024;-49
2021/01/03 10:41:11;;;;;;;4.78;2.38;;;21.40;43.80;;;;;;5135990;27;20114;-46
2021/01/03 10:43:36;;;;;;;4.32;1.90;;;21.40;43.80;;;;;;5118634;27;20043;-43
2021/01/03 10:46:02;;;;;;;6.07;1.85;;;21.40;43.90;;;;;;5114810;28;20024;-58
2021/01/03 10:48:28;;;;;;;3.78;1.70;;;21.40;44.00;;;;;;5115006;28;20032;-48
2021/01/03 10:50:53;;;;;;;4.75;2.00;;;21.40;44.10;;;;;;5115604;28;20098;-54
2021/01/03 10:53:19;;;;;;;4.63;1.90;;;21.40;44.00;;;;;;5115668;28;20035;-57
2021/01/03 10:55:45;;;;;;;5.72;1.83;;;21.40;44.10;;;;;;5114204;28;20035;-46
2021/01/03 10:58:10;;;;;;;4.88;2.00;;;21.40;44.20;;;;;;5115062;27;20038;-45
2021/01/03 11:00:36;;;;;;;3.20;1.98;;;21.40;44.50;;;;;;5114513;28;20031;-50
2021/01/03 11:03:02;;;;;;;3.47;2.50;;;21.50;44.80;;;;;;5115442;28;20028;-47
2021/01/03 11:05:27;;;;;;;4.57;3.00;;;21.50;45.20;;;;;;5114494;27;20055;-46
2021/01/03 11:07:53;;;;;;;6.70;2.70;;;21.50;45.60;;;;;;5115031;28;20048;-45
2021/01/03 11:10:19;;;;;;;4.65;2.75;;;21.40;45.60;;;;;;5115444;28;20028;-45
2021/01/03 11:12:44;;;;;;;4.75;2.70;;;21.40;45.80;;;;;;5114226;28;20433;-45
2021/01/03 11:15:11;;;;;;;5.35;4.15;;;21.30;46.00;;;;;;5114932;28;20027;-45
2021/01/03 11:17:36;;;;;;;3.33;2.50;;;21.30;46.20;;;;;;5113268;28;20416;-45
2021/01/03 11:20:04;;;;;;;5.43;3.00;;;21.30;46.50;;;;;;5115527;28;20070;-46
2021/01/03 11:22:30;;;;;;;4.35;2.58;;;21.30;46.70;;;;;;5114158;28;20031;-46
2021/01/03 11:24:55;;;;;;;4.38;2.25;;;21.30;47.00;;;;;;5115204;28;20036;-46
2021/01/03 11:27:21;;;;;;;6.32;3.50;;;21.30;46.90;;;;;;5114472;28;20065;-55
2021/01/03 11:29:48;;;;;;;11.32;4.53;;;21.20;46.70;;;;;;5114949;28;20024;-44
2021/01/03 11:32:20;;;;;;;212.93;61.28;;;21.30;47.30;;;;;;5113383;28;20027;-47
2021/01/03 11:34:46;;;;;;;120.88;37.38;;;21.20;47.10;;;;;;5114308;28;20027;-47
2021/01/03 11:37:16;;;;;;;109.53;32.83;;;21.20;47.10;;;;;;5114770;28;20388;-46
2021/01/03 11:39:41;;;;;;;100.05;29.83;;;21.20;46.70;;;;;;5114186;28;20020;-46
2021/01/03 11:42:12;;;;;;;90.40;27.58;;;21.20;46.70;;;;;;5114019;28;20102;-52
2021/01/03 11:44:42;;;;;;;87.43;26.33;;;21.20;46.70;;;;;;5114000;28;20034;-46
2021/01/03 11:47:14;;;;;;;73.82;23.50;;;21.10;46.50;;;;;;5114654;28;20023;-44
2021/01/03 11:49:39;;;;;;;;;;;21.10;46.30;;;;;;5114398;28;20060;-40
2021/01/03 11:52:06;;;;;;;81.50;22.38;;;21.10;46.50;;;;;;5114378;28;20375;-44
2021/01/03 11:54:33;;;;;;;73.90;21.35;;;21.10;46.40;;;;;;5113595;28;20023;-48
2021/01/03 11:56:59;;;;;;;64.85;20.77;;;21.10;46.10;;;;;;5114309;27;20031;-46
2021/01/03 11:59:26;;;;;;;68.93;20.38;;;21.10;46.20;;;;;;5113435;27;20032;-53
2021/01/03 12:02:05;;;;;;;58.97;17.85;;;21.00;45.90;;;;;;5114822;28;20126;-46
2021/01/03 12:04:31;;;;;;;59.70;17.40;;;21.00;45.70;;;;;;5113832;28;20476;-48
2021/01/03 12:07:02;;;;;;;50.95;16.95;;;21.00;46.10;;;;;;5114112;28;20142;-48
2021/01/03 12:09:29;;;;;;;48.90;16.77;;;21.00;46.20;;;;;;5113376;28;20052;-47
2021/01/03 12:12:00;;;;;;;51.22;15.90;;;21.10;46.40;;;;;;5113916;28;20032;-50
2021/01/03 12:14:26;;;;;;;48.37;16.40;;;21.10;46.40;;;;;;5113045;28;20023;-50
2021/01/03 12:16:57;;;;;;;44.08;14.32;;;21.10;46.60;;;;;;5114363;28;20027;-46
2021/01/03 12:19:24;;;;;;;54.15;15.88;;;21.10;46.80;;;;;;5113672;28;20098;-52
2021/01/03 12:21:50;;;;;;;42.60;14.15;;;21.10;47.60;;;;;;5113733;28;20031;-48
2021/01/03 12:24:15;;;;;;;46.88;13.68;;;21.10;47.00;;;;;;5114188;28;20032;-42
2021/01/03 12:26:42;;;;;;;39.67;13.13;;;21.10;46.70;;;;;;5113039;28;20028;-49
2021/01/03 12:29:09;;;;;;;32.55;12.60;;;21.10;46.70;;;;;;5113453;28;20480;-48
2021/01/03 12:31:38;;;;;;;43.45;14.30;;;21.00;46.70;;;;;;5113136;28;20023;-46
2021/01/03 12:34:05;;;;;;;36.67;12.23;;;21.10;46.70;;;;;;5112753;28;20027;-47
2021/01/03 12:36:31;;;;;;;31.95;11.48;;;21.10;46.70;;;;;;5111731;28;20023;-46
2021/01/03 12:38:56;;;;;;;34.63;11.77;;;21.10;46.60;;;;;;5113631;28;20028;-45
2021/01/03 12:41:23;;;;;;;35.72;11.35;;;21.10;46.70;;;;;;5113924;28;20096;-50
2021/01/03 12:43:49;;;;;;;31.73;10.98;;;21.10;46.60;;;;;;5112745;28;20059;-43
2021/01/03 12:46:27;;;;;;;28.00;9.95;;;21.10;46.60;;;;;;5113349;28;20028;-46
2021/01/03 12:48:53;;;;;;;30.70;10.40;;;21.10;46.50;;;;;;5113545;28;20107;-41
2021/01/03 12:51:19;;;;;;;32.35;10.35;;;21.10;46.60;;;;;;5113561;28;20055;-44
2021/01/03 12:53:45;;;;;;;32.28;10.68;;;21.10;46.60;;;;;;5112037;28;20654;-45
2021/01/03 12:56:10;;;;;;;26.67;10.98;;;21.10;46.90;;;;;;5112788;28;20030;-46
2021/01/03 12:58:36;;;;;;;30.50;9.80;;;21.10;46.70;;;;;;5112525;28;20453;-51
2021/01/03 13:01:02;;;;;;;28.23;9.35;;;21.10;46.70;;;;;;5112611;27;20084;-41
2021/01/03 13:03:28;;;;;;;28.90;9.18;;;21.00;46.70;;;;;;5131977;27;20042;-47
2021/01/03 13:05:54;;;;;;;26.73;9.27;;;21.00;46.70;;;;;;5134133;27;20397;-45
2021/01/03 13:08:19;;;;;;;26.40;9.02;;;21.00;46.70;;;;;;5125904;27;20365;-44